EZY47RE EGPH-EGGW
Flight info
| Callsign | EZY47RE |
|---|---|
| Flight time | 0h 55m |
| Altitude | 31000 |
| Route | GOSAM P600 FENIK L612 ELBUS UL612 LISTO |
| Aircraft | A320/M-SDE3FGHIRWY/LB1 |
Departure
| Time | 2026-04-25 10:09 |
|---|---|
| Airport | Edinburgh Airport (EGPH) |
Arrival
| Time | 2026-04-25 11:05 |
|---|---|
| Airport | London Luton Airport (EGGW) |
| Time | Latitude | Longitude | Altitude | Speed | Heading |
|---|---|---|---|---|---|
| 2026-04-25 09:33 | 55.94812 | -3.35752 | 112 ft | 0 kts | 208° |
| 2026-04-25 09:58 | 55.94822 | -3.35742 | 112 ft | 4 kts | 208° |
| 2026-04-25 09:58 | 55.94846 | -3.35720 | 110 ft | 4 kts | 208° |
| 2026-04-25 09:58 | 55.94868 | -3.35695 | 112 ft | 4 kts | 229° |
| 2026-04-25 09:59 | 55.94875 | -3.35667 | 110 ft | 1 kts | 298° |
| 2026-04-25 09:59 | 55.94875 | -3.35666 | 110 ft | 0 kts | 298° |
| 2026-04-25 10:02 | 55.94876 | -3.35669 | 110 ft | 3 kts | 298° |
| 2026-04-25 10:02 | 55.94906 | -3.35769 | 112 ft | 11 kts | 298° |
| 2026-04-25 10:03 | 55.94952 | -3.35862 | 112 ft | 9 kts | 337° |
| 2026-04-25 10:03 | 55.95008 | -3.35844 | 112 ft | 8 kts | 27° |
| 2026-04-25 10:03 | 55.95055 | -3.35856 | 112 ft | 7 kts | 314° |
| 2026-04-25 10:03 | 55.95074 | -3.35925 | 111 ft | 6 kts | 295° |
| 2026-04-25 10:04 | 55.95102 | -3.36038 | 112 ft | 13 kts | 288° |
| 2026-04-25 10:04 | 55.95131 | -3.36196 | 112 ft | 13 kts | 288° |
| 2026-04-25 10:04 | 55.95117 | -3.36331 | 112 ft | 11 kts | 240° |
| 2026-04-25 10:04 | 55.95081 | -3.36442 | 112 ft | 10 kts | 240° |
| 2026-04-25 10:05 | 55.95043 | -3.36555 | 112 ft | 14 kts | 238° |
| 2026-04-25 10:05 | 55.94991 | -3.36703 | 111 ft | 13 kts | 239° |
| 2026-04-25 10:05 | 55.94929 | -3.36889 | 112 ft | 24 kts | 238° |
| 2026-04-25 10:05 | 55.94854 | -3.37109 | 112 ft | 20 kts | 238° |
| 2026-04-25 10:06 | 55.94787 | -3.37308 | 111 ft | 18 kts | 239° |
| 2026-04-25 10:06 | 55.94729 | -3.37477 | 111 ft | 15 kts | 238° |
| 2026-04-25 10:06 | 55.94676 | -3.37626 | 111 ft | 13 kts | 238° |
| 2026-04-25 10:06 | 55.94634 | -3.37758 | 114 ft | 13 kts | 241° |
| 2026-04-25 10:07 | 55.94585 | -3.37905 | 112 ft | 15 kts | 239° |
| 2026-04-25 10:07 | 55.94533 | -3.38060 | 112 ft | 14 kts | 239° |
| 2026-04-25 10:07 | 55.94474 | -3.38231 | 111 ft | 16 kts | 237° |
| 2026-04-25 10:07 | 55.94421 | -3.38387 | 112 ft | 14 kts | 239° |
| 2026-04-25 10:08 | 55.94376 | -3.38521 | 114 ft | 11 kts | 239° |
| 2026-04-25 10:08 | 55.94321 | -3.38687 | 117 ft | 20 kts | 238° |
| 2026-04-25 10:08 | 55.94297 | -3.38874 | 114 ft | 13 kts | 317° |
| 2026-04-25 10:08 | 55.94378 | -3.38959 | 115 ft | 14 kts | 339° |
| 2026-04-25 10:09 | 55.94459 | -3.38842 | 114 ft | 30 kts | 62° |
| 2026-04-25 10:09 | 55.94709 | -3.38113 | 115 ft | 104 kts | 60° |
| 2026-04-25 10:09 | 55.95180 | -3.36719 | 176 ft | 151 kts | 60° |
| 2026-04-25 10:09 | 55.95717 | -3.35085 | 766 ft | 156 kts | 60° |
| 2026-04-25 10:10 | 55.96432 | -3.33548 | 1420 ft | 164 kts | 42° |
| 2026-04-25 10:10 | 55.97305 | -3.32208 | 2076 ft | 170 kts | 44° |
| 2026-04-25 10:10 | 55.98229 | -3.30750 | 2504 ft | 185 kts | 43° |
| 2026-04-25 10:10 | 55.99239 | -3.29155 | 2897 ft | 201 kts | 40° |
| 2026-04-25 10:11 | 56.00526 | -3.28017 | 3317 ft | 215 kts | 9° |
| 2026-04-25 10:11 | 56.02047 | -3.28171 | 3738 ft | 229 kts | 339° |
| 2026-04-25 10:11 | 56.03393 | -3.29777 | 4260 ft | 241 kts | 308° |
| 2026-04-25 10:11 | 56.04100 | -3.32529 | 4879 ft | 253 kts | 276° |
| 2026-04-25 10:12 | 56.03896 | -3.35690 | 5651 ft | 261 kts | 256° |
| 2026-04-25 10:12 | 56.03447 | -3.38824 | 6491 ft | 265 kts | 257° |
| 2026-04-25 10:12 | 56.02577 | -3.45302 | 8150 ft | 272 kts | 258° |
| 2026-04-25 10:13 | 56.02105 | -3.48601 | 8967 ft | 276 kts | 256° |
| 2026-04-25 10:13 | 56.01600 | -3.51934 | 9772 ft | 279 kts | 256° |
| 2026-04-25 10:13 | 56.01077 | -3.55312 | 10463 ft | 287 kts | 256° |
| 2026-04-25 10:13 | 56.00529 | -3.58854 | 10867 ft | 304 kts | 256° |
| 2026-04-25 10:14 | 55.99937 | -3.62591 | 11255 ft | 322 kts | 255° |
| 2026-04-25 10:14 | 55.99285 | -3.66529 | 11606 ft | 338 kts | 255° |
| 2026-04-25 10:14 | 55.98593 | -3.70617 | 12035 ft | 351 kts | 255° |
| 2026-04-25 10:14 | 55.97873 | -3.74836 | 12707 ft | 356 kts | 255° |
| 2026-04-25 10:15 | 55.97150 | -3.79060 | 13394 ft | 359 kts | 255° |
| 2026-04-25 10:15 | 55.96415 | -3.83367 | 14073 ft | 363 kts | 255° |
| 2026-04-25 10:15 | 55.95673 | -3.87701 | 14662 ft | 367 kts | 254° |
| 2026-04-25 10:15 | 55.94923 | -3.92088 | 15278 ft | 370 kts | 254° |
| 2026-04-25 10:16 | 55.94157 | -3.96489 | 15894 ft | 373 kts | 251° |
| 2026-04-25 10:16 | 55.92954 | -4.00608 | 16516 ft | 378 kts | 234° |
| 2026-04-25 10:16 | 55.91108 | -4.03948 | 17128 ft | 382 kts | 218° |
| 2026-04-25 10:16 | 55.88960 | -4.06795 | 17715 ft | 386 kts | 217° |
| 2026-04-25 10:17 | 55.86788 | -4.09645 | 18325 ft | 389 kts | 217° |
| 2026-04-25 10:17 | 55.84596 | -4.12513 | 18881 ft | 392 kts | 217° |
| 2026-04-25 10:17 | 55.82398 | -4.15389 | 19402 ft | 395 kts | 217° |
| 2026-04-25 10:17 | 55.80177 | -4.18301 | 19920 ft | 398 kts | 217° |
| 2026-04-25 10:18 | 55.77933 | -4.21220 | 20430 ft | 401 kts | 214° |
| 2026-04-25 10:18 | 55.75443 | -4.23452 | 20938 ft | 404 kts | 199° |
| 2026-04-25 10:18 | 55.72691 | -4.24526 | 21426 ft | 407 kts | 186° |
| 2026-04-25 10:18 | 55.69852 | -4.24572 | 21898 ft | 410 kts | 175° |
| 2026-04-25 10:19 | 55.67032 | -4.23685 | 22368 ft | 413 kts | 165° |
| 2026-04-25 10:19 | 55.64319 | -4.21979 | 22800 ft | 416 kts | 156° |
| 2026-04-25 10:19 | 55.61749 | -4.19596 | 23257 ft | 419 kts | 151° |
| 2026-04-25 10:19 | 55.59222 | -4.17123 | 23713 ft | 421 kts | 151° |
| 2026-04-25 10:20 | 55.57492 | -4.15431 | 23965 ft | 423 kts | 151° |
| 2026-04-25 10:20 | 55.54914 | -4.12913 | 24333 ft | 425 kts | 151° |
| 2026-04-25 10:20 | 55.51463 | -4.09551 | 24809 ft | 428 kts | 151° |
| 2026-04-25 10:20 | 55.48851 | -4.07011 | 25161 ft | 430 kts | 151° |
| 2026-04-25 10:21 | 55.46230 | -4.04464 | 25512 ft | 431 kts | 151° |
| 2026-04-25 10:21 | 55.43598 | -4.01906 | 25851 ft | 433 kts | 151° |
| 2026-04-25 10:21 | 55.41817 | -4.00175 | 26070 ft | 435 kts | 151° |
| 2026-04-25 10:21 | 55.39157 | -3.97597 | 26400 ft | 437 kts | 151° |
| 2026-04-25 10:22 | 55.36486 | -3.95016 | 26723 ft | 439 kts | 151° |
| 2026-04-25 10:22 | 55.33805 | -3.92431 | 27047 ft | 441 kts | 151° |
| 2026-04-25 10:22 | 55.31105 | -3.89833 | 27348 ft | 443 kts | 151° |
| 2026-04-25 10:22 | 55.28391 | -3.87226 | 27644 ft | 445 kts | 152° |
| 2026-04-25 10:23 | 55.25675 | -3.84620 | 27940 ft | 447 kts | 152° |
| 2026-04-25 10:23 | 55.22980 | -3.82037 | 28227 ft | 449 kts | 152° |
| 2026-04-25 10:23 | 55.20237 | -3.79410 | 28506 ft | 450 kts | 152° |
| 2026-04-25 10:23 | 55.17476 | -3.76768 | 28772 ft | 452 kts | 152° |
| 2026-04-25 10:24 | 55.14708 | -3.74125 | 29029 ft | 454 kts | 152° |
| 2026-04-25 10:24 | 55.11926 | -3.71477 | 29269 ft | 456 kts | 152° |
| 2026-04-25 10:24 | 55.09138 | -3.68823 | 29515 ft | 457 kts | 152° |
| 2026-04-25 10:24 | 55.06346 | -3.66168 | 29840 ft | 457 kts | 152° |
| 2026-04-25 10:25 | 55.03559 | -3.63528 | 30205 ft | 456 kts | 152° |
| 2026-04-25 10:25 | 55.00769 | -3.60886 | 30519 ft | 455 kts | 152° |
| 2026-04-25 10:25 | 54.97995 | -3.58259 | 30809 ft | 454 kts | 152° |
| 2026-04-25 10:25 | 54.95228 | -3.55639 | 31088 ft | 453 kts | 152° |
| 2026-04-25 10:26 | 54.92451 | -3.53017 | 31206 ft | 452 kts | 152° |
| 2026-04-25 10:26 | 54.86934 | -3.47836 | 31219 ft | 451 kts | 152° |
| 2026-04-25 10:27 | 54.81410 | -3.42656 | 31221 ft | 451 kts | 151° |
| 2026-04-25 10:27 | 54.75888 | -3.37489 | 31216 ft | 452 kts | 151° |
| 2026-04-25 10:28 | 54.70317 | -3.32433 | 31218 ft | 452 kts | 154° |
| 2026-04-25 10:28 | 54.64558 | -3.28010 | 31222 ft | 453 kts | 157° |
| 2026-04-25 10:29 | 54.58734 | -3.23888 | 31221 ft | 453 kts | 157° |
| 2026-04-25 10:29 | 54.52933 | -3.19676 | 31224 ft | 453 kts | 156° |
| 2026-04-25 10:30 | 54.47190 | -3.15375 | 31227 ft | 453 kts | 156° |
| 2026-04-25 10:30 | 54.41415 | -3.11048 | 31221 ft | 453 kts | 156° |
| 2026-04-25 10:31 | 54.35633 | -3.06759 | 31238 ft | 453 kts | 156° |
| 2026-04-25 10:31 | 54.29838 | -3.02494 | 31225 ft | 453 kts | 156° |
| 2026-04-25 10:32 | 54.24043 | -2.98245 | 31235 ft | 453 kts | 156° |
| 2026-04-25 10:32 | 54.18254 | -2.93997 | 31229 ft | 453 kts | 156° |
| 2026-04-25 10:33 | 54.12464 | -2.89755 | 31245 ft | 452 kts | 157° |
| 2026-04-25 10:33 | 54.06677 | -2.85535 | 31228 ft | 452 kts | 157° |
| 2026-04-25 10:34 | 54.00885 | -2.81337 | 31246 ft | 452 kts | 157° |
| 2026-04-25 10:34 | 53.95140 | -2.77169 | 31232 ft | 452 kts | 157° |
| 2026-04-25 10:35 | 53.89354 | -2.72974 | 31232 ft | 452 kts | 157° |
| 2026-04-25 10:35 | 53.83565 | -2.68802 | 31229 ft | 452 kts | 157° |
| 2026-04-25 10:36 | 53.72829 | -2.61086 | 31233 ft | 452 kts | 157° |
| 2026-04-25 10:36 | 53.61042 | -2.52711 | 31225 ft | 469 kts | 158° |
| 2026-04-25 10:37 | 53.48944 | -2.44139 | 31219 ft | 470 kts | 158° |
| 2026-04-25 10:37 | 53.36901 | -2.35638 | 31220 ft | 470 kts | 158° |
| 2026-04-25 10:38 | 53.24837 | -2.27222 | 31221 ft | 469 kts | 158° |
| 2026-04-25 10:38 | 53.12952 | -2.18221 | 31215 ft | 471 kts | 146° |
| 2026-04-25 10:39 | 53.02402 | -2.05318 | 31226 ft | 471 kts | 145° |
| 2026-04-25 10:39 | 52.91848 | -1.92598 | 31241 ft | 471 kts | 145° |
| 2026-04-25 10:40 | 52.81238 | -1.79828 | 31247 ft | 472 kts | 145° |
| 2026-04-25 10:40 | 52.70227 | -1.68123 | 31200 ft | 471 kts | 154° |
| 2026-04-25 10:41 | 52.59787 | -1.59163 | 31183 ft | 471 kts | 154° |
| 2026-04-25 10:41 | 52.56765 | -1.56565 | 30809 ft | 455 kts | 154° |
| 2026-04-25 10:41 | 52.51350 | -1.51913 | 29475 ft | 428 kts | 154° |
| 2026-04-25 10:41 | 52.46184 | -1.47515 | 27633 ft | 411 kts | 154° |
| 2026-04-25 10:42 | 52.41185 | -1.43281 | 25855 ft | 397 kts | 154° |
| 2026-04-25 10:42 | 52.36350 | -1.39196 | 24199 ft | 384 kts | 154° |
| 2026-04-25 10:42 | 52.31660 | -1.35233 | 22445 ft | 373 kts | 153° |
| 2026-04-25 10:42 | 52.29028 | -1.32995 | 21446 ft | 368 kts | 153° |
| 2026-04-25 10:43 | 52.26793 | -1.30978 | 20605 ft | 364 kts | 151° |
| 2026-04-25 10:43 | 52.24615 | -1.28922 | 19781 ft | 360 kts | 150° |
| 2026-04-25 10:43 | 52.22469 | -1.26860 | 18986 ft | 356 kts | 150° |
| 2026-04-25 10:43 | 52.20342 | -1.24810 | 18257 ft | 356 kts | 150° |
| 2026-04-25 10:44 | 52.18121 | -1.22687 | 17973 ft | 382 kts | 150° |
| 2026-04-25 10:44 | 52.15842 | -1.20525 | 17701 ft | 384 kts | 150° |
| 2026-04-25 10:44 | 52.13534 | -1.18350 | 17454 ft | 383 kts | 150° |
| 2026-04-25 10:44 | 52.11235 | -1.16195 | 17086 ft | 380 kts | 150° |
| 2026-04-25 10:45 | 52.08946 | -1.14055 | 16700 ft | 378 kts | 150° |
| 2026-04-25 10:45 | 52.06668 | -1.11926 | 16317 ft | 377 kts | 150° |
| 2026-04-25 10:45 | 52.04415 | -1.09783 | 15928 ft | 374 kts | 147° |
| 2026-04-25 10:45 | 52.02579 | -1.07319 | 15596 ft | 373 kts | 134° |
| 2026-04-25 10:46 | 52.01035 | -1.03960 | 15223 ft | 372 kts | 120° |
| 2026-04-25 10:46 | 52.00051 | -1.00070 | 14947 ft | 373 kts | 106° |
| 2026-04-25 10:46 | 51.99667 | -0.95920 | 14693 ft | 373 kts | 92° |
| 2026-04-25 10:46 | 51.99667 | -0.91721 | 14432 ft | 372 kts | 91° |
| 2026-04-25 10:47 | 51.99670 | -0.87535 | 14170 ft | 370 kts | 91° |
| 2026-04-25 10:47 | 51.99669 | -0.83373 | 13896 ft | 368 kts | 91° |
| 2026-04-25 10:47 | 51.99666 | -0.79220 | 13628 ft | 367 kts | 91° |
| 2026-04-25 10:47 | 51.99661 | -0.75096 | 13374 ft | 366 kts | 90° |
| 2026-04-25 10:48 | 51.99655 | -0.70982 | 13112 ft | 363 kts | 91° |
| 2026-04-25 10:48 | 51.99647 | -0.66891 | 12857 ft | 362 kts | 91° |
| 2026-04-25 10:48 | 51.99638 | -0.62810 | 12606 ft | 361 kts | 90° |
| 2026-04-25 10:48 | 51.99629 | -0.58745 | 12352 ft | 359 kts | 90° |
| 2026-04-25 10:49 | 51.99618 | -0.54771 | 12209 ft | 345 kts | 90° |
| 2026-04-25 10:49 | 51.99611 | -0.52227 | 12126 ft | 336 kts | 91° |
| 2026-04-25 10:49 | 51.99592 | -0.47281 | 11956 ft | 320 kts | 91° |
| 2026-04-25 10:49 | 51.99576 | -0.43740 | 11852 ft | 309 kts | 91° |
| 2026-04-25 10:50 | 51.99561 | -0.40308 | 11719 ft | 299 kts | 90° |
| 2026-04-25 10:50 | 51.99544 | -0.36964 | 11511 ft | 294 kts | 91° |
| 2026-04-25 10:50 | 51.99513 | -0.33681 | 11293 ft | 289 kts | 91° |
| 2026-04-25 10:50 | 51.99475 | -0.30467 | 11095 ft | 288 kts | 92° |
| 2026-04-25 10:51 | 51.99432 | -0.27192 | 10900 ft | 287 kts | 91° |
| 2026-04-25 10:51 | 51.99389 | -0.23952 | 10697 ft | 286 kts | 91° |
| 2026-04-25 10:51 | 51.99345 | -0.20769 | 10516 ft | 285 kts | 91° |
| 2026-04-25 10:51 | 51.99301 | -0.17560 | 10324 ft | 284 kts | 91° |
| 2026-04-25 10:52 | 51.99258 | -0.14350 | 10140 ft | 283 kts | 91° |
| 2026-04-25 10:52 | 51.99215 | -0.11165 | 9933 ft | 283 kts | 91° |
| 2026-04-25 10:52 | 51.99173 | -0.07975 | 9739 ft | 282 kts | 91° |
| 2026-04-25 10:52 | 51.99130 | -0.04798 | 9550 ft | 281 kts | 91° |
| 2026-04-25 10:53 | 51.99087 | -0.01636 | 9375 ft | 281 kts | 91° |
| 2026-04-25 10:53 | 51.99070 | 0.01397 | 9242 ft | 272 kts | 84° |
| 2026-04-25 10:53 | 51.99673 | 0.04207 | 9112 ft | 262 kts | 53° |
| 2026-04-25 10:53 | 52.01056 | 0.05985 | 8989 ft | 253 kts | 21° |
| 2026-04-25 10:54 | 52.02754 | 0.06325 | 8818 ft | 249 kts | 354° |
| 2026-04-25 10:54 | 52.03932 | 0.06111 | 8696 ft | 249 kts | 358° |
| 2026-04-25 10:54 | 52.06220 | 0.06170 | 8493 ft | 248 kts | 5° |
| 2026-04-25 10:54 | 52.07940 | 0.06373 | 8334 ft | 247 kts | 6° |
| 2026-04-25 10:55 | 52.09655 | 0.06532 | 8181 ft | 247 kts | 358° |
| 2026-04-25 10:55 | 52.11274 | 0.05669 | 8087 ft | 250 kts | 324° |
| 2026-04-25 10:55 | 52.12331 | 0.03462 | 7989 ft | 253 kts | 289° |
| 2026-04-25 10:55 | 52.12454 | 0.00646 | 7892 ft | 254 kts | 255° |
| 2026-04-25 10:56 | 52.11620 | -0.01846 | 7798 ft | 252 kts | 222° |
| 2026-04-25 10:56 | 52.10124 | -0.03214 | 7705 ft | 249 kts | 190° |
| 2026-04-25 10:56 | 52.08404 | -0.03399 | 7604 ft | 247 kts | 181° |
| 2026-04-25 10:56 | 52.06722 | -0.03678 | 7520 ft | 237 kts | 186° |
| 2026-04-25 10:57 | 52.05135 | -0.04104 | 7440 ft | 226 kts | 188° |
| 2026-04-25 10:57 | 52.03620 | -0.04540 | 7362 ft | 216 kts | 188° |
| 2026-04-25 10:57 | 52.02138 | -0.04959 | 7278 ft | 216 kts | 189° |
| 2026-04-25 10:57 | 52.00726 | -0.05709 | 7191 ft | 210 kts | 204° |
| 2026-04-25 10:58 | 51.99426 | -0.06773 | 6859 ft | 212 kts | 205° |
| 2026-04-25 10:58 | 51.98058 | -0.07852 | 6286 ft | 225 kts | 204° |
| 2026-04-25 10:58 | 51.96651 | -0.08945 | 5891 ft | 221 kts | 204° |
| 2026-04-25 10:58 | 51.95283 | -0.10007 | 5402 ft | 217 kts | 204° |
| 2026-04-25 10:59 | 51.93926 | -0.11058 | 4878 ft | 215 kts | 203° |
| 2026-04-25 10:59 | 51.92612 | -0.12220 | 4321 ft | 215 kts | 215° |
| 2026-04-25 10:59 | 51.91544 | -0.13866 | 3837 ft | 213 kts | 220° |
| 2026-04-25 10:59 | 51.90311 | -0.14922 | 3664 ft | 190 kts | 185° |
| 2026-04-25 11:00 | 51.89102 | -0.14572 | 3344 ft | 179 kts | 145° |
| 2026-04-25 11:00 | 51.88372 | -0.13028 | 3014 ft | 177 kts | 102° |
| 2026-04-25 11:00 | 51.88532 | -0.11086 | 3003 ft | 179 kts | 60° |
| 2026-04-25 11:00 | 51.89475 | -0.09809 | 2999 ft | 181 kts | 20° |
| 2026-04-25 11:01 | 51.90655 | -0.09885 | 2991 ft | 169 kts | 337° |
| 2026-04-25 11:01 | 51.91488 | -0.11219 | 3005 ft | 175 kts | 293° |
| 2026-04-25 11:01 | 51.91533 | -0.13161 | 3014 ft | 177 kts | 252° |
| 2026-04-25 11:01 | 51.91181 | -0.15065 | 2939 ft | 176 kts | 253° |
| 2026-04-25 11:02 | 51.90865 | -0.16977 | 2761 ft | 175 kts | 253° |
| 2026-04-25 11:02 | 51.90548 | -0.18861 | 2543 ft | 175 kts | 252° |
| 2026-04-25 11:02 | 51.90227 | -0.20749 | 2316 ft | 169 kts | 253° |
| 2026-04-25 11:02 | 51.89923 | -0.22530 | 2093 ft | 159 kts | 253° |
| 2026-04-25 11:03 | 51.89634 | -0.24217 | 1888 ft | 152 kts | 253° |
| 2026-04-25 11:03 | 51.89351 | -0.25872 | 1662 ft | 152 kts | 253° |
| 2026-04-25 11:03 | 51.89068 | -0.27518 | 1452 ft | 151 kts | 253° |
| 2026-04-25 11:03 | 51.88786 | -0.29157 | 1270 ft | 151 kts | 255° |
| 2026-04-25 11:04 | 51.88504 | -0.30802 | 1102 ft | 153 kts | 255° |
| 2026-04-25 11:04 | 51.88221 | -0.32441 | 924 ft | 149 kts | 255° |
| 2026-04-25 11:04 | 51.87954 | -0.34043 | 731 ft | 145 kts | 256° |
| 2026-04-25 11:04 | 51.87777 | -0.35073 | 595 ft | 143 kts | 254° |
| 2026-04-25 11:05 | 51.87441 | -0.36976 | 523 ft | 98 kts | 255° |
| 2026-04-25 11:05 | 51.87336 | -0.37572 | 521 ft | 20 kts | 255° |
| 2026-04-25 11:05 | 51.87390 | -0.37692 | 521 ft | 15 kts | 25° |
| 2026-04-25 11:05 | 51.87464 | -0.37575 | 522 ft | 15 kts | 49° |
| 2026-04-25 11:06 | 51.87547 | -0.37462 | 522 ft | 16 kts | 18° |
| 2026-04-25 11:06 | 51.87660 | -0.37476 | 522 ft | 17 kts | 343° |
| 2026-04-25 11:06 | 51.87722 | -0.37637 | 519 ft | 19 kts | 295° |
| 2026-04-25 11:06 | 51.87770 | -0.37813 | 524 ft | 17 kts | 296° |
| 2026-04-25 11:07 | 51.87835 | -0.37988 | 524 ft | 18 kts | 331° |
| 2026-04-25 11:07 | 51.87941 | -0.38010 | 524 ft | 13 kts | 15° |
| 2026-04-25 11:07 | 51.88015 | -0.37931 | 523 ft | 11 kts | 69° |
| 2026-04-25 11:07 | 51.87999 | -0.37887 | 523 ft | 4 kts | 128° |
| 2026-04-25 11:08 | 51.87990 | -0.37869 | 523 ft | 2 kts | 127° |
| 2026-04-25 11:08 | 51.87988 | -0.37865 | 523 ft | 0 kts | 127° |